createdAt,value
2022-09-17T00:00:31.622Z,16.60
2022-09-17T00:02:59.442Z,16.70
2022-09-17T00:05:27.191Z,16.50
2022-09-17T00:07:54.871Z,16.60
2022-09-17T00:10:23.123Z,16.50
2022-09-17T00:12:52.451Z,16.50
2022-09-17T00:15:20.143Z,16.60
2022-09-17T00:17:47.894Z,16.40
2022-09-17T00:20:15.557Z,16.50
2022-09-17T00:22:43.275Z,16.20
2022-09-17T00:25:10.920Z,16.10
2022-09-17T00:27:38.646Z,15.90
2022-09-17T00:30:08.613Z,16.20
2022-09-17T00:32:36.261Z,16.30
2022-09-17T00:35:04.015Z,16.00
2022-09-17T00:37:31.788Z,16.00
2022-09-17T00:39:59.510Z,15.90
2022-09-17T00:42:27.215Z,15.80
2022-09-17T00:44:55.555Z,16.00
2022-09-17T00:47:28.043Z,16.10
2022-09-17T00:49:57.729Z,16.10
2022-09-17T00:52:27.662Z,16.00
2022-09-17T00:54:58.407Z,16.10
2022-09-17T00:57:26.454Z,16.30
2022-09-17T00:59:54.791Z,16.40
2022-09-17T01:02:23.039Z,16.10
2022-09-17T01:04:52.174Z,16.20
2022-09-17T01:07:24.763Z,16.20
2022-09-17T01:09:54.547Z,16.00
2022-09-17T01:12:31.965Z,16.20
2022-09-17T01:15:08.315Z,16.10
2022-09-17T01:17:43.813Z,16.30
2022-09-17T01:20:29.463Z,16.20
2022-09-17T01:23:17.015Z,16.10
2022-09-17T01:25:53.331Z,15.70
2022-09-17T01:28:25.453Z,15.90
2022-09-17T01:31:05.480Z,16.00
2022-09-17T01:33:38.285Z,16.00
2022-09-17T01:36:10.818Z,15.90
2022-09-17T01:38:41.999Z,15.90
2022-09-17T01:41:12.441Z,15.90
2022-09-17T01:43:44.836Z,15.80
2022-09-17T01:46:16.060Z,15.80
2022-09-17T01:48:47.258Z,15.70
2022-09-17T01:51:17.499Z,15.50
2022-09-17T01:53:46.813Z,15.70
2022-09-17T01:56:18.263Z,15.50
2022-09-17T01:58:48.042Z,15.40
2022-09-17T02:01:18.585Z,15.40
2022-09-17T02:03:49.490Z,15.60
2022-09-17T02:06:18.974Z,15.40
2022-09-17T02:08:47.688Z,15.30
2022-09-17T02:11:17.118Z,15.50
2022-09-17T02:13:46.057Z,15.60
2022-09-17T02:16:16.905Z,15.70
2022-09-17T02:18:50.394Z,15.60
2022-09-17T02:21:23.064Z,15.60
2022-09-17T02:23:57.742Z,15.50
2022-09-17T02:26:26.774Z,15.70
2022-09-17T02:28:56.132Z,15.60
2022-09-17T02:31:23.902Z,15.70
2022-09-17T02:33:54.369Z,15.60
2022-09-17T02:36:23.776Z,15.70
2022-09-17T02:38:56.258Z,15.40
2022-09-17T02:41:26.912Z,15.30
2022-09-17T02:43:59.314Z,15.50
2022-09-17T02:46:41.694Z,15.40
2022-09-17T02:49:15.972Z,15.30
2022-09-17T02:51:48.325Z,15.30
2022-09-17T02:54:19.273Z,15.50
2022-09-17T02:56:52.004Z,15.60
2022-09-17T02:59:23.128Z,15.70
2022-09-17T03:01:53.230Z,15.60
2022-09-17T03:04:23.775Z,15.10
2022-09-17T03:06:53.101Z,15.30
2022-09-17T03:09:20.776Z,15.30
2022-09-17T03:11:48.711Z,15.40
2022-09-17T03:14:16.550Z,15.20
2022-09-17T03:16:44.200Z,15.40
2022-09-17T03:19:11.882Z,15.20
2022-09-17T03:21:41.276Z,15.20
2022-09-17T03:24:10.869Z,15.00
2022-09-17T03:26:38.767Z,15.40
2022-09-17T03:29:06.499Z,15.40
2022-09-17T03:31:34.264Z,15.40
2022-09-17T03:34:01.976Z,15.30
2022-09-17T03:36:29.768Z,15.40
2022-09-17T03:38:58.883Z,15.40
2022-09-17T03:41:26.551Z,15.60
2022-09-17T03:43:54.368Z,15.50
2022-09-17T03:46:22.294Z,15.50
2022-09-17T03:48:49.970Z,15.50
2022-09-17T03:51:17.627Z,15.70
2022-09-17T03:53:45.366Z,15.70
2022-09-17T03:56:14.469Z,15.60
2022-09-17T03:58:42.132Z,15.50
2022-09-17T04:01:09.811Z,15.20
2022-09-17T04:03:37.499Z,15.10
2022-09-17T04:06:05.236Z,15.20
2022-09-17T04:08:33.849Z,15.30
2022-09-17T04:11:01.498Z,15.30
2022-09-17T04:13:30.515Z,15.10
2022-09-17T04:15:58.242Z,15.20
2022-09-17T04:18:25.955Z,15.60
2022-09-17T04:20:54.099Z,15.60
2022-09-17T04:23:22.202Z,15.30
2022-09-17T04:25:50.331Z,15.00
2022-09-17T04:28:18.070Z,15.50
2022-09-17T04:30:48.599Z,15.60
2022-09-17T04:33:16.260Z,15.10
2022-09-17T04:35:43.943Z,15.10
2022-09-17T04:38:13.679Z,14.70
2022-09-17T04:40:42.486Z,14.70
2022-09-17T04:43:10.606Z,14.70
2022-09-17T04:45:38.272Z,14.60
2022-09-17T04:48:07.286Z,14.60
2022-09-17T04:50:35.205Z,14.70
2022-09-17T04:53:03.242Z,15.10
2022-09-17T04:55:31.259Z,15.20
2022-09-17T04:57:59.355Z,15.00
2022-09-17T05:00:27.019Z,15.20
2022-09-17T05:02:55.705Z,15.40
2022-09-17T05:05:24.995Z,15.60
2022-09-17T05:07:52.648Z,15.30
2022-09-17T05:10:21.164Z,15.00
2022-09-17T05:12:49.734Z,15.20
2022-09-17T05:15:17.435Z,15.20
2022-09-17T05:17:45.191Z,15.10
2022-09-17T05:20:13.064Z,15.10
2022-09-17T05:22:45.589Z,15.20
2022-09-17T05:25:13.437Z,15.20
2022-09-17T05:27:41.460Z,15.40
2022-09-17T05:30:09.706Z,15.50
2022-09-17T05:32:37.689Z,15.60
2022-09-17T05:35:06.191Z,15.70
2022-09-17T05:37:33.866Z,15.80
2022-09-17T05:40:03.262Z,16.00
2022-09-17T05:42:30.946Z,15.80
2022-09-17T05:44:58.599Z,15.50
2022-09-17T05:47:26.342Z,14.90
2022-09-17T05:49:53.974Z,14.40
2022-09-17T05:52:21.667Z,13.90
2022-09-17T05:54:49.626Z,13.40
2022-09-17T05:57:20.107Z,12.90
2022-09-17T05:59:47.830Z,12.70
2022-09-17T06:02:15.697Z,12.40
2022-09-17T06:04:43.376Z,12.30
2022-09-17T06:07:11.075Z,12.20
2022-09-17T06:09:40.540Z,12.00
2022-09-17T06:12:08.575Z,11.90
2022-09-17T06:14:37.607Z,11.90
2022-09-17T06:17:05.402Z,11.90
2022-09-17T06:19:33.039Z,11.90
2022-09-17T06:22:01.146Z,12.00
2022-09-17T06:24:28.856Z,12.00
2022-09-17T06:26:56.503Z,12.00
2022-09-17T06:29:24.235Z,12.10
2022-09-17T06:31:54.165Z,12.00
2022-09-17T06:34:21.903Z,12.00
2022-09-17T06:36:49.581Z,12.00
2022-09-17T06:39:17.464Z,12.10
2022-09-17T06:41:46.089Z,12.10
2022-09-17T06:44:13.785Z,12.10
2022-09-17T06:46:42.982Z,12.10
2022-09-17T06:49:12.175Z,12.10
2022-09-17T06:51:40.069Z,12.10
2022-09-17T06:54:07.752Z,12.10
2022-09-17T06:56:35.570Z,12.20
2022-09-17T06:59:03.368Z,12.40
2022-09-17T07:01:31.286Z,12.50
2022-09-17T07:03:59.014Z,12.60
2022-09-17T07:06:28.045Z,12.70
2022-09-17T07:08:55.835Z,12.70
2022-09-17T07:11:23.487Z,12.60
2022-09-17T07:13:51.194Z,12.60
2022-09-17T07:16:19.681Z,12.50
2022-09-17T07:18:47.392Z,12.50
2022-09-17T07:21:15.052Z,12.50
2022-09-17T07:23:44.690Z,12.50
2022-09-17T07:26:13.768Z,12.40
2022-09-17T07:28:41.740Z,12.40
2022-09-17T07:31:15.233Z,12.40
2022-09-17T07:33:44.246Z,12.40
2022-09-17T07:36:13.095Z,12.50
2022-09-17T07:38:40.753Z,12.60
2022-09-17T07:41:12.831Z,12.80
2022-09-17T07:43:40.549Z,12.80
2022-09-17T07:46:08.683Z,13.00
2022-09-17T07:48:36.314Z,13.20
2022-09-17T07:51:03.960Z,13.40
2022-09-17T07:53:31.601Z,13.60
2022-09-17T07:56:00.070Z,13.70
2022-09-17T07:58:31.144Z,13.50
2022-09-17T08:01:03.005Z,13.60
2022-09-17T08:03:30.652Z,13.40
2022-09-17T08:06:03.828Z,13.40
2022-09-17T08:08:33.629Z,13.30
2022-09-17T08:11:02.473Z,13.30
2022-09-17T08:13:31.588Z,13.30
2022-09-17T08:16:00.043Z,13.30
2022-09-17T08:18:28.376Z,13.20
2022-09-17T08:20:57.441Z,13.40
2022-09-17T08:23:25.170Z,13.60
2022-09-17T08:25:53.546Z,13.90
2022-09-17T08:28:21.381Z,14.10
2022-09-17T08:30:50.481Z,14.40
2022-09-17T08:33:18.577Z,14.60
2022-09-17T08:35:52.704Z,14.80
2022-09-17T08:38:20.695Z,15.10
2022-09-17T08:40:55.852Z,15.20
2022-09-17T08:43:24.337Z,15.10
2022-09-17T08:45:55.513Z,15.10
2022-09-17T08:48:23.844Z,15.10
2022-09-17T08:50:51.965Z,15.20
2022-09-17T08:53:26.093Z,15.00
2022-09-17T08:55:57.381Z,15.10
2022-09-17T08:58:32.043Z,15.30
2022-09-17T09:01:05.916Z,15.40
2022-09-17T09:03:41.654Z,15.60
2022-09-17T09:06:11.035Z,15.70
2022-09-17T09:08:40.681Z,15.70
2022-09-17T09:11:16.550Z,15.40
2022-09-17T09:13:45.738Z,15.40
2022-09-17T09:16:16.758Z,15.50
2022-09-17T09:18:44.550Z,15.50
2022-09-17T09:21:21.807Z,15.60
2022-09-17T09:23:53.381Z,15.60
2022-09-17T09:26:21.984Z,15.50
2022-09-17T09:29:06.451Z,15.50
2022-09-17T09:31:52.236Z,15.70
2022-09-17T09:34:21.528Z,16.00
2022-09-17T09:36:50.154Z,15.80
2022-09-17T09:39:21.712Z,15.80
2022-09-17T09:41:51.366Z,15.50
2022-09-17T09:44:19.022Z,15.20
2022-09-17T09:46:59.797Z,15.10
2022-09-17T09:49:34.965Z,14.80
2022-09-17T09:52:07.944Z,14.60
2022-09-17T09:54:46.614Z,14.50
2022-09-17T09:57:16.154Z,14.30
2022-09-17T09:59:43.867Z,14.20
2022-09-17T10:02:11.686Z,14.20
2022-09-17T10:04:40.906Z,14.00
2022-09-17T10:07:09.319Z,14.10
2022-09-17T10:09:37.911Z,14.00
2022-09-17T10:12:07.309Z,14.20
2022-09-17T10:14:35.699Z,14.40
2022-09-17T10:17:15.776Z,14.40
2022-09-17T10:19:45.867Z,14.40
2022-09-17T10:22:34.459Z,14.50
2022-09-17T10:25:02.694Z,14.40
2022-09-17T10:27:31.165Z,14.60
2022-09-17T10:30:03.041Z,14.60
2022-09-17T10:32:30.951Z,14.60
2022-09-17T10:35:00.699Z,14.70
2022-09-17T10:37:46.375Z,14.70
2022-09-17T10:40:29.242Z,14.80
2022-09-17T10:43:18.379Z,14.70
2022-09-17T10:45:47.097Z,14.60
2022-09-17T10:48:16.766Z,14.70
2022-09-17T10:50:50.452Z,14.80
2022-09-17T10:53:18.720Z,15.00
2022-09-17T10:55:48.382Z,15.40
2022-09-17T10:58:25.365Z,15.60
2022-09-17T11:00:59.876Z,15.90
2022-09-17T11:03:48.673Z,16.00
2022-09-17T11:06:31.442Z,16.00
2022-09-17T11:09:03.568Z,16.10
2022-09-17T11:11:40.190Z,15.90
2022-09-17T11:14:15.740Z,15.90
2022-09-17T11:16:49.032Z,16.10
2022-09-17T11:19:23.542Z,16.30
2022-09-17T11:21:57.187Z,16.30
2022-09-17T11:24:44.732Z,16.20
2022-09-17T11:27:18.151Z,16.30
2022-09-17T11:29:53.743Z,16.30
2022-09-17T11:32:31.545Z,16.30
2022-09-17T11:35:01.465Z,16.80
2022-09-17T11:37:33.057Z,17.10
2022-09-17T11:40:01.796Z,17.60
2022-09-17T11:42:32.892Z,17.70
2022-09-17T11:45:03.272Z,17.80
2022-09-17T11:47:32.096Z,17.60
2022-09-17T11:50:01.942Z,17.20
2022-09-17T11:52:33.263Z,16.90
2022-09-17T11:55:03.810Z,16.60
2022-09-17T11:57:33.654Z,16.40
2022-09-17T12:00:04.739Z,16.30
2022-09-17T12:02:39.367Z,16.10
2022-09-17T12:05:10.503Z,16.00
2022-09-17T12:07:42.099Z,16.40
2022-09-17T12:10:19.626Z,17.30
2022-09-17T12:12:51.177Z,17.60
2022-09-17T12:15:21.508Z,17.50
2022-09-17T12:18:08.716Z,17.30
2022-09-17T12:20:43.641Z,17.10
2022-09-17T12:23:15.886Z,17.00
2022-09-17T12:25:46.942Z,17.00
2022-09-17T12:28:19.494Z,16.80
2022-09-17T12:30:54.349Z,17.30
2022-09-17T12:33:25.012Z,17.70
2022-09-17T12:36:04.519Z,17.90
2022-09-17T12:38:42.946Z,18.50
2022-09-17T12:41:14.703Z,19.00
2022-09-17T12:43:50.214Z,19.30
2022-09-17T12:46:25.494Z,19.50
2022-09-17T12:49:19.086Z,19.20
2022-09-17T12:51:57.111Z,18.80
2022-09-17T12:54:34.648Z,19.00
2022-09-17T12:57:06.368Z,19.40
2022-09-17T12:59:35.392Z,19.80
2022-09-17T13:02:04.085Z,19.80
2022-09-17T13:05:00.917Z,19.30
2022-09-17T13:07:44.008Z,19.30
2022-09-17T13:10:25.003Z,19.60
2022-09-17T13:12:54.610Z,19.30
2022-09-17T13:15:31.467Z,19.30
2022-09-17T13:18:20.653Z,19.90
2022-09-17T13:20:56.370Z,20.00
2022-09-17T13:23:31.588Z,20.30
2022-09-17T13:26:04.565Z,20.40
2022-09-17T13:28:46.945Z,20.90
2022-09-17T13:31:20.234Z,20.80
2022-09-17T13:33:58.300Z,20.70
2022-09-17T13:36:46.191Z,20.70
2022-09-17T13:39:28.735Z,20.70
2022-09-17T13:42:02.920Z,20.50
2022-09-17T13:44:30.591Z,20.70
2022-09-17T13:47:09.195Z,21.00
2022-09-17T13:49:36.934Z,21.30
2022-09-17T13:52:08.947Z,20.90
2022-09-17T13:54:39.671Z,20.90
2022-09-17T13:57:18.450Z,20.90
2022-09-17T13:59:57.214Z,21.00
2022-09-17T14:02:31.030Z,21.20
2022-09-17T14:05:13.768Z,21.60
2022-09-17T14:07:48.868Z,22.00
2022-09-17T14:10:35.088Z,22.10
2022-09-17T14:13:17.628Z,21.80
2022-09-17T14:15:57.445Z,21.50
2022-09-17T14:18:35.369Z,20.70
2022-09-17T14:21:06.691Z,20.10
2022-09-17T14:23:34.655Z,19.60
2022-09-17T14:26:03.493Z,19.00
2022-09-17T14:28:35.030Z,18.50
2022-09-17T14:31:09.705Z,18.40
2022-09-17T14:33:37.514Z,18.10
2022-09-17T14:36:09.912Z,17.20
2022-09-17T14:38:44.367Z,16.20
2022-09-17T14:41:18.322Z,15.20
2022-09-17T14:43:48.710Z,14.70
2022-09-17T14:46:20.408Z,14.70
2022-09-17T14:48:48.109Z,15.20
2022-09-17T14:51:24.559Z,15.90
2022-09-17T14:54:07.112Z,16.20
2022-09-17T14:56:36.104Z,16.40
2022-09-17T14:59:03.795Z,15.90
2022-09-17T15:01:33.202Z,15.70
2022-09-17T15:04:20.922Z,15.40
2022-09-17T15:06:48.606Z,15.20
2022-09-17T15:09:16.988Z,14.90
2022-09-17T15:11:47.913Z,14.90
2022-09-17T15:14:18.432Z,15.00
2022-09-17T15:16:51.420Z,15.30
2022-09-17T15:19:23.114Z,15.70
2022-09-17T15:21:51.627Z,16.10
2022-09-17T15:24:22.524Z,16.20
2022-09-17T15:26:52.442Z,16.10
2022-09-17T15:29:22.353Z,15.80
2022-09-17T15:31:51.476Z,15.60
2022-09-17T15:34:19.237Z,15.30
2022-09-17T15:37:01.773Z,15.10
2022-09-17T15:39:30.819Z,15.00
2022-09-17T15:41:58.759Z,14.90
2022-09-17T15:44:31.483Z,14.80
2022-09-17T15:47:18.334Z,14.60
2022-09-17T15:50:04.925Z,14.60
2022-09-17T15:52:35.527Z,14.60
2022-09-17T15:55:03.303Z,14.30
2022-09-17T15:57:31.741Z,13.80
2022-09-17T16:00:06.697Z,13.50
2022-09-17T16:02:34.434Z,13.20
2022-09-17T16:05:17.364Z,12.80
2022-09-17T16:07:46.598Z,12.70
2022-09-17T16:10:15.173Z,12.50
2022-09-17T16:12:43.866Z,12.30
2022-09-17T16:15:13.641Z,12.30
2022-09-17T16:17:44.930Z,12.30
2022-09-17T16:20:17.439Z,12.40
2022-09-17T16:22:47.874Z,12.60
2022-09-17T16:25:15.982Z,12.70
2022-09-17T16:27:45.909Z,12.80
2022-09-17T16:30:15.777Z,12.90
2022-09-17T16:32:43.498Z,12.80
2022-09-17T16:35:16.981Z,12.80
2022-09-17T16:37:48.781Z,12.80
2022-09-17T16:40:16.752Z,12.90
2022-09-17T16:42:44.438Z,12.80
2022-09-17T16:45:12.491Z,12.90
2022-09-17T16:47:40.981Z,12.80
2022-09-17T16:50:09.723Z,12.90
2022-09-17T16:52:37.551Z,12.90
2022-09-17T16:55:07.874Z,13.00
2022-09-17T16:57:35.741Z,13.00
2022-09-17T17:00:04.113Z,12.90
2022-09-17T17:02:31.844Z,12.90
2022-09-17T17:04:59.496Z,12.70
2022-09-17T17:07:27.353Z,12.40
2022-09-17T17:09:55.062Z,12.20
2022-09-17T17:12:24.059Z,12.00
2022-09-17T17:14:52.617Z,12.00
2022-09-17T17:17:20.750Z,12.00
2022-09-17T17:19:48.447Z,11.90
2022-09-17T17:22:16.524Z,11.80
2022-09-17T17:24:44.175Z,11.70
2022-09-17T17:27:13.834Z,11.70
2022-09-17T17:29:42.953Z,11.60
2022-09-17T17:32:10.637Z,11.60
2022-09-17T17:34:38.333Z,11.60
2022-09-17T17:37:06.264Z,11.50
2022-09-17T17:39:33.894Z,11.50
2022-09-17T17:42:01.602Z,11.40
2022-09-17T17:44:29.309Z,11.30
2022-09-17T17:46:58.358Z,11.30
2022-09-17T17:49:26.173Z,11.30
2022-09-17T17:51:54.050Z,11.30
2022-09-17T17:54:21.992Z,11.20
2022-09-17T17:56:49.684Z,11.20
2022-09-17T17:59:17.365Z,11.20
2022-09-17T18:01:45.106Z,11.20
2022-09-17T18:04:14.255Z,11.20
2022-09-17T18:06:42.664Z,11.20
2022-09-17T18:09:10.325Z,11.10
2022-09-17T18:11:37.983Z,11.10
2022-09-17T18:14:05.911Z,11.00
2022-09-17T18:16:33.640Z,11.10
2022-09-17T18:19:01.811Z,11.10
2022-09-17T18:21:30.876Z,11.10
2022-09-17T18:23:58.899Z,11.00
2022-09-17T18:26:27.479Z,11.10
2022-09-17T18:28:55.258Z,11.10
2022-09-17T18:31:24.327Z,11.10
2022-09-17T18:33:55.923Z,11.20
2022-09-17T18:36:23.572Z,11.20
2022-09-17T18:38:55.020Z,11.20
2022-09-17T18:41:22.800Z,11.20
2022-09-17T18:43:50.828Z,11.20
2022-09-17T18:46:18.520Z,11.10
2022-09-17T18:48:46.230Z,11.00
2022-09-17T18:51:14.572Z,11.00
2022-09-17T18:53:42.495Z,11.00
2022-09-17T18:56:15.423Z,11.00
2022-09-17T18:58:43.220Z,10.90
2022-09-17T19:01:10.988Z,10.90
2022-09-17T19:03:38.729Z,10.80
2022-09-17T19:06:08.184Z,10.80
2022-09-17T19:08:36.152Z,10.70
2022-09-17T19:11:03.940Z,10.70
2022-09-17T19:13:35.506Z,10.70
2022-09-17T19:16:03.783Z,10.60
2022-09-17T19:18:33.012Z,10.60
2022-09-17T19:21:01.516Z,10.60
2022-09-17T19:23:29.292Z,10.60
2022-09-17T19:25:56.952Z,10.50
2022-09-17T19:28:24.630Z,10.50
2022-09-17T19:30:53.678Z,10.50
2022-09-17T19:33:21.411Z,10.40
2022-09-17T19:35:50.551Z,10.40
2022-09-17T19:38:18.271Z,10.40
2022-09-17T19:40:55.475Z,10.30
2022-09-17T19:43:23.164Z,10.30
2022-09-17T19:45:50.954Z,10.40
2022-09-17T19:48:24.555Z,10.30
2022-09-17T19:50:53.002Z,10.30
2022-09-17T19:53:20.935Z,10.20
2022-09-17T19:55:49.129Z,10.20
2022-09-17T19:58:17.087Z,10.20
2022-09-17T20:00:44.814Z,10.10
2022-09-17T20:03:12.523Z,10.10
2022-09-17T20:05:41.763Z,10.00
2022-09-17T20:08:09.399Z,10.10
2022-09-17T20:10:38.347Z,10.00
2022-09-17T20:13:07.050Z,10.00
2022-09-17T20:15:35.201Z,10.00
2022-09-17T20:18:02.898Z,9.90
2022-09-17T20:20:30.554Z,9.90
2022-09-17T20:22:59.547Z,9.90
2022-09-17T20:25:27.201Z,9.90
2022-09-17T20:27:54.931Z,9.90
2022-09-17T20:30:22.591Z,9.90
2022-09-17T20:32:50.255Z,10.00
2022-09-17T20:35:17.936Z,10.00
2022-09-17T20:38:44.558Z,10.00
2022-09-17T20:40:34.617Z,10.00
2022-09-17T20:43:02.319Z,10.00
2022-09-17T20:45:29.946Z,10.00
2022-09-17T20:47:57.842Z,10.00
2022-09-17T20:50:25.484Z,10.00
2022-09-17T20:52:53.128Z,10.00
2022-09-17T20:55:21.496Z,10.00
2022-09-17T20:57:53.562Z,10.00
2022-09-17T21:00:21.595Z,10.10
2022-09-17T21:02:54.088Z,10.00
2022-09-17T21:05:21.742Z,10.10
2022-09-17T21:07:49.390Z,10.10
2022-09-17T21:10:17.156Z,10.10
2022-09-17T21:12:44.806Z,10.10
2022-09-17T21:15:14.856Z,10.10
2022-09-17T21:17:45.274Z,10.20
2022-09-17T21:20:12.915Z,10.20
2022-09-17T21:22:40.667Z,10.20
2022-09-17T21:25:08.688Z,10.20
2022-09-17T21:27:36.327Z,10.20
2022-09-17T21:30:09.355Z,10.30
2022-09-17T21:32:38.712Z,10.40
2022-09-17T21:35:06.593Z,10.40
2022-09-17T21:37:36.382Z,10.50
2022-09-17T21:40:04.865Z,10.50
2022-09-17T21:42:32.920Z,10.50
2022-09-17T21:45:00.596Z,10.50
2022-09-17T21:47:28.250Z,10.60
2022-09-17T21:49:57.290Z,10.60
2022-09-17T21:52:25.059Z,10.60
2022-09-17T21:54:52.697Z,10.60
2022-09-17T21:57:20.332Z,10.60
2022-09-17T21:59:48.001Z,10.60
2022-09-17T22:02:15.660Z,10.60
2022-09-17T22:04:43.303Z,10.70
2022-09-17T22:07:12.299Z,10.70
2022-09-17T22:09:39.953Z,10.70
2022-09-17T22:12:07.637Z,10.70
2022-09-17T22:14:35.304Z,10.70
2022-09-17T22:17:02.996Z,10.70
2022-09-17T22:19:30.646Z,10.80
2022-09-17T22:21:58.309Z,10.80
2022-09-17T22:24:27.315Z,10.80
2022-09-17T22:26:57.749Z,10.70
2022-09-17T22:29:26.384Z,10.70
2022-09-17T22:31:54.044Z,10.70
2022-09-17T22:34:22.731Z,10.70
2022-09-17T22:36:50.508Z,10.70
2022-09-17T22:39:20.677Z,10.70
2022-09-17T22:41:50.074Z,10.70
2022-09-17T22:44:18.542Z,10.60
2022-09-17T22:46:47.269Z,10.60
2022-09-17T22:49:15.494Z,10.60
2022-09-17T22:51:43.719Z,10.50
2022-09-17T22:54:11.796Z,10.50
2022-09-17T22:56:40.188Z,10.50
2022-09-17T22:59:09.555Z,10.50
2022-09-17T23:01:37.938Z,10.50
2022-09-17T23:04:06.083Z,10.50
2022-09-17T23:06:34.610Z,10.50
2022-09-17T23:09:02.472Z,10.50
2022-09-17T23:11:31.841Z,10.50
2022-09-17T23:14:01.969Z,10.50
2022-09-17T23:16:34.175Z,10.50
2022-09-17T23:19:05.216Z,10.50
2022-09-17T23:21:33.067Z,10.50
2022-09-17T23:24:00.797Z,10.50
2022-09-17T23:26:28.489Z,10.40
2022-09-17T23:28:58.142Z,10.40
2022-09-17T23:31:30.185Z,10.40
2022-09-17T23:33:59.826Z,10.40
2022-09-17T23:36:28.239Z,10.40
2022-09-17T23:38:56.578Z,10.40
2022-09-17T23:41:24.750Z,10.40
2022-09-17T23:43:53.607Z,10.30
2022-09-17T23:46:22.508Z,10.30
2022-09-17T23:48:51.203Z,10.30
2022-09-17T23:51:20.603Z,10.30
2022-09-17T23:53:48.965Z,10.30
2022-09-17T23:56:17.971Z,10.20
2022-09-17T23:58:46.174Z,10.20
